Time;durP1;ratioP1;P1;durP2;ratioP2;P2;SDS_P1;SDS_P2;PMS_P1;PMS_P2;Temp;Humidity;BMP_temperature;BMP_pressure;BME280_temperature;BME280_humidity;BME280_pressure;Samples;Min_cycle;Max_cycle;Signal;HPM_P1;HPM_P2
2021/05/07 00:02:03;;;;;;;;;34.00;33.25;;;;;15.72;71.03;100950.41;4899889;29;10834;-76
2021/05/07 00:04:58;;;;;;;;;30.75;29.25;;;;;15.64;71.61;100957.81;4899778;29;10313;-76
2021/05/07 00:07:54;;;;;;;;;37.00;33.00;;;;;15.55;71.92;100954.34;4892920;29;10246;-76
2021/05/07 00:10:49;;;;;;;;;29.00;28.75;;;;;15.44;72.29;100959.63;4905126;29;10056;-76
2021/05/07 00:13:47;;;;;;;;;34.25;32.50;;;;;15.32;73.51;100961.66;4918695;29;10104;-76
2021/05/07 00:16:43;;;;;;;;;24.50;24.50;;;;;15.25;73.74;100959.50;4918712;29;10260;-76
2021/05/07 00:19:38;;;;;;;;;32.50;32.25;;;;;15.30;73.50;100974.00;4918457;29;10347;-76
2021/05/07 00:22:34;;;;;;;;;29.75;29.75;;;;;15.22;74.19;100961.03;4915342;29;10215;-76
2021/05/07 00:25:30;;;;;;;;;24.75;24.75;;;;;15.06;74.84;100967.72;4915482;29;10315;-76
2021/05/07 00:28:25;;;;;;;;;28.50;27.50;;;;;15.15;74.68;100982.31;4918539;29;10233;-76
2021/05/07 00:31:21;;;;;;;;;31.75;30.75;;;;;15.10;75.01;100986.16;4917013;29;10242;-76
2021/05/07 00:34:16;;;;;;;;;32.25;32.00;;;;;15.11;75.29;101004.50;4899204;29;11233;-76
2021/05/07 00:37:12;;;;;;;;;22.50;22.50;;;;;15.05;75.38;101016.25;4880948;29;10255;-76
2021/05/07 00:40:09;;;;;;;;;25.50;25.50;;;;;15.09;75.25;101023.53;4868347;29;10479;-76
2021/05/07 00:43:04;;;;;;;;;26.50;26.25;;;;;15.21;74.67;101028.25;4879614;29;10368;-76
2021/05/07 00:46:00;;;;;;;;;30.50;29.50;;;;;15.20;74.50;101021.06;4884772;29;10164;-76
2021/05/07 00:48:56;;;;;;;;;25.25;24.75;;;;;15.18;74.50;101023.38;4880586;29;11101;-77
2021/05/07 00:51:52;;;;;;;;;30.00;28.50;;;;;15.17;74.76;101024.53;4880572;29;10068;-77
2021/05/07 00:54:47;;;;;;;;;26.50;25.50;;;;;15.16;74.64;101029.31;4890331;29;9958;-77
2021/05/07 00:57:43;;;;;;;;;21.50;21.50;;;;;15.19;74.19;101025.03;4899081;29;10415;-77
2021/05/07 01:00:39;;;;;;;;;26.25;24.50;;;;;15.08;75.13;101030.25;4903966;29;10293;-76
2021/05/07 01:03:34;;;;;;;;;25.00;25.00;;;;;14.79;76.65;101025.81;4917599;29;9991;-76
2021/05/07 01:06:30;;;;;;;;;22.00;21.25;;;;;15.07;75.87;101022.25;4917895;29;10072;-76
2021/05/07 01:09:25;;;;;;;;;22.50;22.50;;;;;15.07;75.44;101023.06;4917912;29;10131;-77
2021/05/07 01:12:21;;;;;;;;;18.50;18.50;;;;;14.87;76.53;101026.84;4918046;29;10164;-77
2021/05/07 01:15:23;;;;;;;;;25.75;25.75;;;;;14.89;76.44;101027.31;4917861;29;9942;-77
2021/05/07 01:18:19;;;;;;;;;24.00;24.00;;;;;14.95;75.97;101023.94;4904697;29;10266;-76
2021/05/07 01:21:15;;;;;;;;;25.75;25.75;;;;;15.04;75.78;101037.72;4905028;29;10843;-77
2021/05/07 01:24:11;;;;;;;;;25.00;25.00;;;;;15.01;75.82;101038.41;4899831;29;10732;-77
2021/05/07 01:27:07;;;;;;;;;21.75;21.75;;;;;14.96;75.50;101036.69;4898875;29;10152;-77
2021/05/07 01:30:11;;;;;;;;;22.25;22.25;;;;;14.91;75.99;101025.78;4898943;29;10225;-76
2021/05/07 01:33:13;;;;;;;;;18.25;18.25;;;;;14.78;76.21;101037.31;4917305;29;10125;-77
2021/05/07 01:36:08;;;;;;;;;24.00;24.00;;;;;14.73;76.48;101036.41;4917347;29;10974;-77
2021/05/07 01:39:04;;;;;;;;;21.75;21.75;;;;;14.69;76.82;101037.44;4917282;29;10275;-77
2021/05/07 01:42:00;;;;;;;;;23.25;23.00;;;;;14.73;76.63;101041.97;4917372;29;10161;-77
2021/05/07 01:44:55;;;;;;;;;22.25;22.00;;;;;14.85;75.87;101043.09;4890122;29;10329;-77
2021/05/07 01:47:51;;;;;;;;;24.50;24.50;;;;;14.83;75.97;101046.22;4885715;29;11002;-76
2021/05/07 01:50:48;;;;;;;;;25.00;22.00;;;;;14.73;76.25;101049.50;4898345;29;10371;-76
2021/05/07 01:53:44;;;;;;;;;28.00;26.75;;;;;14.78;75.97;101054.00;4897863;29;11264;-77
2021/05/07 01:56:39;;;;;;;;;33.25;32.75;;;;;14.77;75.75;101058.75;4898339;29;10292;-76
2021/05/07 01:59:35;;;;;;;;;34.25;33.00;;;;;14.58;76.66;101064.13;4885573;29;10528;-77
2021/05/07 02:02:30;;;;;;;;;40.25;37.00;;;;;14.55;76.32;101068.41;4884061;29;11424;-76
2021/05/07 02:05:28;;;;;;;;;39.50;35.25;;;;;14.39;77.31;101065.47;4898020;29;10746;-76
2021/05/07 02:08:24;;;;;;;;;44.50;39.75;;;;;14.35;77.68;101063.75;4885422;29;10816;-76
2021/05/07 02:11:19;;;;;;;;;36.50;33.00;;;;;14.47;77.04;101074.91;4906827;29;11189;-76
2021/05/07 02:14:15;;;;;;;;;49.00;42.75;;;;;14.40;77.35;101074.63;4916228;29;10785;-76
2021/05/07 02:17:10;;;;;;;;;46.25;40.25;;;;;14.48;77.10;101078.50;4917130;29;11630;-77
2021/05/07 02:20:08;;;;;;;;;50.25;43.00;;;;;14.48;76.80;101087.66;4917520;29;11308;-77
2021/05/07 02:23:03;;;;;;;;;52.25;43.75;;;;;14.37;77.16;101089.25;4913010;29;11246;-77
2021/05/07 02:25:59;;;;;;;;;44.75;39.50;;;;;14.37;77.05;101084.50;4916124;29;11552;-77
2021/05/07 02:28:54;;;;;;;;;47.00;40.00;;;;;14.44;76.50;101100.63;4890002;29;11214;-76
2021/05/07 02:31:50;;;;;;;;;50.00;43.00;;;;;14.48;76.29;101103.53;4898409;29;11252;-75
2021/05/07 02:34:46;;;;;;;;;52.00;43.50;;;;;14.44;76.26;101111.75;4902341;29;11321;-77
2021/05/07 02:37:42;;;;;;;;;55.50;47.50;;;;;14.40;76.44;101127.50;4916059;29;11578;-77
2021/05/07 02:40:37;;;;;;;;;44.25;39.25;;;;;14.31;76.57;101121.25;4903615;29;11397;-77
2021/05/07 02:43:33;;;;;;;;;53.75;45.50;;;;;14.35;76.49;101127.75;4915796;29;11309;-77
2021/05/07 02:46:32;;;;;;;;;59.50;46.50;;;;;14.25;76.71;101129.00;4916353;29;11652;-77
2021/05/07 02:49:27;;;;;;;;;54.75;45.75;;;;;14.25;76.61;101133.75;4915913;29;12402;-76
2021/05/07 02:52:24;;;;;;;;;45.75;39.50;;;;;13.99;77.28;101132.06;4925329;29;11544;-77
2021/05/07 02:55:20;;;;;;;;;39.25;36.50;;;;;14.07;77.29;101136.72;4903507;29;11180;-77
2021/05/07 02:58:15;;;;;;;;;42.00;37.25;;;;;13.78;78.40;101143.22;4915636;29;11166;-77
2021/05/07 03:01:11;;;;;;;;;39.75;36.00;;;;;13.89;77.92;101146.41;4916126;29;12077;-76
2021/05/07 03:04:07;;;;;;;;;34.00;33.75;;;;;13.95;77.68;101147.00;4915799;29;11154;-76
2021/05/07 03:07:04;;;;;;;;;37.75;35.50;;;;;13.86;77.82;101147.88;4916440;29;10892;-77
2021/05/07 03:09:59;;;;;;;;;38.25;35.00;;;;;13.54;79.15;101145.91;4915781;29;10944;-76
2021/05/07 03:12:55;;;;;;;;;36.00;34.00;;;;;13.49;79.99;101155.25;4915195;29;10974;-76
2021/05/07 03:15:51;;;;;;;;;35.50;31.75;;;;;13.67;79.42;101157.91;4916473;29;11261;-77
2021/05/07 03:18:46;;;;;;;;;38.25;36.25;;;;;13.78;79.46;101173.00;4914065;29;11006;-77
2021/05/07 03:21:42;;;;;;;;;41.00;36.00;;;;;13.87;78.84;101170.94;4921830;29;11142;-78
2021/05/07 03:24:38;;;;;;;;;42.00;37.25;;;;;13.87;78.95;101185.66;4905320;29;11199;-78
2021/05/07 03:27:37;;;;;;;;;40.25;37.00;;;;;13.86;79.22;101189.59;4884514;29;11154;-78
2021/05/07 03:30:34;;;;;;;;;63.25;50.00;;;;;13.86;79.14;101195.16;4908453;29;11526;-77
2021/05/07 03:33:30;;;;;;;;;62.50;51.75;;;;;13.86;79.07;101186.81;4915592;29;11743;-76
2021/05/07 03:36:26;;;;;;;;;82.00;69.00;;;;;14.04;78.59;101195.81;4918341;29;11590;-77
2021/05/07 03:39:22;;;;;;;;;79.50;64.00;;;;;14.16;77.75;101200.59;4917059;29;12609;-77
2021/05/07 03:42:18;;;;;;;;;94.75;88.75;;;;;14.37;76.13;101203.34;4915371;29;11724;-77
2021/05/07 03:45:14;;;;;;;;;84.50;75.25;;;;;14.56;75.49;101198.06;4916377;29;12391;-77
2021/05/07 03:48:18;;;;;;;;;84.25;69.25;;;;;14.67;75.37;101204.00;4915120;29;11657;-77
2021/05/07 03:51:14;;;;;;;;;106.25;96.25;;;;;14.75;74.71;101208.66;4915272;29;11772;-77
2021/05/07 03:54:09;;;;;;;;;95.25;84.00;;;;;14.89;73.52;101217.50;4911540;29;12410;-77
2021/05/07 03:57:05;;;;;;;;;96.50;90.50;;;;;15.05;73.26;101227.94;4920445;29;11763;-77
2021/05/07 04:00:01;;;;;;;;;88.25;81.00;;;;;15.05;73.32;101225.97;4915336;29;11612;-75
2021/05/07 04:02:56;;;;;;;;;94.75;86.25;;;;;15.18;73.04;101216.44;4914635;29;11726;-75
2021/05/07 04:05:54;;;;;;;;;99.00;92.75;;;;;15.45;73.51;101228.81;4915610;29;11667;-74
2021/05/07 04:09:15;;;;;;;;;86.50;77.75;;;;;15.74;75.46;101227.75;4914802;29;11655;-74
2021/05/07 04:15:30;;;;;;;;;134.00;120.33;;;;;15.56;68.31;101229.16;4877431;29;11668;-75
2021/05/07 04:18:26;;;;;;;;;112.25;101.50;;;;;15.97;71.13;101230.00;4899378;29;8970;-72
2021/05/07 04:21:28;;;;;;;;;122.33;112.00;;;;;15.64;66.79;101235.78;4898904;29;11668;-74
2021/05/07 04:24:24;;;;;;;;;111.50;105.50;;;;;15.75;67.10;101237.75;4892874;29;11800;-74
2021/05/07 04:27:19;;;;;;;;;137.00;114.33;;;;;15.98;65.69;101246.38;4894086;29;11798;-74
2021/05/07 04:30:15;;;;;;;;;91.00;81.75;;;;;16.62;71.07;101253.75;4896628;29;11666;-74
2021/05/07 04:33:11;;;;;;;;;152.00;122.67;;;;;16.44;63.14;101249.69;4884807;29;11663;-74
2021/05/07 04:36:07;;;;;;;;;99.75;83.00;;;;;16.54;63.81;101256.72;4896035;29;8833;-74
2021/05/07 04:39:03;;;;;;;;;126.00;113.25;;;;;16.63;63.11;101260.13;4901433;29;11715;-74
2021/05/07 04:41:59;;;;;;;;;140.67;113.00;;;;;16.44;59.82;101263.63;4918190;29;11693;-74
2021/05/07 04:44:54;;;;;;;;;140.25;113.25;;;;;16.60;60.81;101261.69;4918124;29;11736;-74
2021/05/07 04:47:50;;;;;;;;;92.00;82.75;;;;;16.89;63.18;101259.69;4918301;29;11639;-74
2021/05/07 04:50:46;;;;;;;;;102.00;89.25;;;;;17.10;62.88;101256.59;4905562;29;11647;-74
2021/05/07 04:53:41;;;;;;;;;144.50;108.75;;;;;16.97;58.38;101255.88;4899089;29;11680;-75
2021/05/07 04:56:37;;;;;;;;;134.25;113.00;;;;;17.26;61.70;101256.59;4899182;29;12436;-74
2021/05/07 04:59:33;;;;;;;;;130.50;102.75;;;;;16.92;54.29;101253.34;4899146;29;11664;-74
2021/05/07 05:02:29;;;;;;;;;104.50;85.25;;;;;17.42;64.90;101249.00;4898867;29;11681;-74
2021/05/07 05:05:25;;;;;;;;;119.00;95.50;;;;;17.84;61.21;101251.94;4898680;29;11772;-75
2021/05/07 05:08:24;;;;;;;;;108.50;85.75;;;;;17.85;52.42;101259.16;4899013;29;12408;-74
2021/05/07 05:11:20;;;;;;;;;83.75;70.00;;;;;17.56;50.76;101251.28;4907843;29;11787;-75
2021/05/07 05:14:15;;;;;;;;;69.25;53.25;;;;;17.71;49.78;101258.84;4917992;29;11584;-74
2021/05/07 05:17:11;;;;;;;;;77.00;55.50;;;;;17.93;51.12;101252.53;4917890;29;10921;-72
2021/05/07 05:20:09;;;;;;;;;68.25;51.75;;;;;18.17;52.14;101253.44;4917163;29;11049;-72
2021/05/07 05:23:04;;;;;;;;;73.50;54.25;;;;;18.33;49.52;101268.19;4917137;29;11119;-72
2021/05/07 05:26:00;;;;;;;;;65.75;51.00;;;;;18.49;48.91;101270.88;4910595;29;10822;-74
2021/05/07 05:28:56;;;;;;;;;48.25;39.50;;;;;18.41;46.54;101281.13;4917218;29;10156;-72
2021/05/07 05:31:51;;;;;;;;;56.75;42.50;;;;;18.25;43.96;101278.44;4917747;29;9838;-72
2021/05/07 05:34:47;;;;;;;;;68.25;52.25;;;;;18.43;50.41;101270.38;4917298;29;10002;-73
2021/05/07 05:37:44;;;;;;;;;71.00;53.75;;;;;18.63;47.85;101276.72;4919244;29;10668;-74
2021/05/07 05:40:41;;;;;;;;;70.00;50.75;;;;;18.42;44.16;101271.56;4919504;29;10746;-72
2021/05/07 05:43:37;;;;;;;;;73.50;55.00;;;;;18.95;52.08;101280.19;4917686;29;10977;-73
2021/05/07 05:46:35;;;;;;;;;58.50;46.00;;;;;19.12;49.05;101274.06;4918470;29;10613;-73
2021/05/07 05:49:31;;;;;;;;;55.75;46.00;;;;;18.82;45.96;101270.31;4917422;29;10158;-72
2021/05/07 05:52:26;;;;;;;;;66.00;50.00;;;;;19.00;44.81;101279.03;4917602;29;9971;-73
2021/05/07 05:55:22;;;;;;;;;62.00;45.00;;;;;19.33;50.41;101279.22;4918707;29;10119;-73
2021/05/07 05:58:17;;;;;;;;;73.25;55.00;;;;;19.35;43.88;101279.63;4917426;29;10294;-72
2021/05/07 06:01:13;;;;;;;;;57.50;46.25;;;;;19.27;43.37;101269.50;4918885;29;10649;-73
2021/05/07 06:04:09;;;;;;;;;54.00;43.00;;;;;19.27;42.11;101266.69;4927624;29;9804;-73
2021/05/07 06:07:04;;;;;;;;;37.67;33.33;;;;;19.30;42.32;101265.13;4918188;29;9607;-73
2021/05/07 06:10:00;;;;;;;;;49.00;40.33;;;;;19.51;46.12;101265.44;4917370;29;8938;-73
2021/05/07 06:12:55;;;;;;;;;49.33;38.67;;;;;19.75;44.84;101269.84;4918777;28;9276;-72
2021/05/07 06:15:51;;;;;;;;;57.33;45.00;;;;;19.62;47.81;101272.03;4918893;28;9197;-73
2021/05/07 06:18:46;;;;;;;;;41.00;34.67;;;;;19.92;45.78;101276.88;4918332;28;9684;-72
2021/05/07 06:21:42;;;;;;;;;48.00;38.33;;;;;20.11;48.83;101273.13;4916928;29;8968;-72
2021/05/07 06:24:38;;;;;;;;;38.75;32.50;;;;;20.19;42.62;101281.25;4917042;29;9026;-73
2021/05/07 06:27:33;;;;;;;;;13.25;12.25;;;;;19.49;39.05;101289.47;4917402;29;8976;-73
2021/05/07 06:30:29;;;;;;;;;23.75;22.00;;;;;19.79;41.33;101286.75;4917318;29;8984;-73
2021/05/07 06:33:26;;;;;;;;;12.00;10.75;;;;;19.80;39.00;101286.34;4918431;28;8841;-73
2021/05/07 06:36:22;;;;;;;;;11.25;11.00;;;;;19.71;39.43;101297.84;4917130;29;8963;-73
2021/05/07 06:39:17;;;;;;;;;11.00;11.00;;;;;19.79;39.12;101298.78;4916971;29;8833;-73
2021/05/07 06:42:13;;;;;;;;;34.25;31.50;;;;;20.16;46.06;101296.03;4916561;29;8865;-73
2021/05/07 06:45:10;;;;;;;;;9.50;9.00;;;;;20.32;39.31;101303.44;4918127;29;9559;-73
2021/05/07 06:48:06;;;;;;;;;31.00;27.75;;;;;20.50;43.71;101307.34;4916779;29;8936;-73
2021/05/07 06:51:02;;;;;;;;;33.00;29.50;;;;;20.71;37.66;101306.78;4916443;29;8865;-73
2021/05/07 06:53:57;;;;;;;;;16.00;14.50;;;;;20.91;38.84;101313.78;4916488;29;8853;-73
2021/05/07 06:56:55;;;;;;;;;9.25;9.25;;;;;20.54;34.57;101308.16;4916649;29;8849;-73
2021/05/07 06:59:52;;;;;;;;;7.00;7.00;;;;;20.83;34.12;101301.66;4916679;29;8885;-73
2021/05/07 07:02:48;;;;;;;;;17.50;17.50;;;;;21.02;35.87;101300.66;4916256;29;8873;-73
2021/05/07 07:05:43;;;;;;;;;18.75;17.50;;;;;21.26;35.81;101293.63;4916557;29;8964;-73
2021/05/07 07:08:39;;;;;;;;;14.25;13.50;;;;;21.49;35.68;101298.25;4916434;29;8875;-73
2021/05/07 07:11:35;;;;;;;;;13.00;12.50;;;;;21.55;33.27;101305.94;4916376;29;8869;-73
2021/05/07 07:14:31;;;;;;;;;20.00;19.75;;;;;21.71;34.62;101297.19;4916337;29;8857;-73
2021/05/07 07:17:26;;;;;;;;;26.00;25.00;;;;;21.75;32.74;101303.66;4916495;29;8975;-73
2021/05/07 07:20:22;;;;;;;;;24.75;22.50;;;;;21.49;32.05;101295.44;4916254;29;9011;-73
2021/05/07 07:23:18;;;;;;;;;26.75;25.75;;;;;21.47;37.25;101309.06;4917742;28;9568;-72
2021/05/07 07:26:13;;;;;;;;;23.25;22.50;;;;;21.74;31.85;101309.69;4916181;29;8860;-72
2021/05/07 07:29:09;;;;;;;;;8.50;8.50;;;;;21.33;29.52;101310.59;4916473;29;8858;-73
2021/05/07 07:32:04;;;;;;;;;9.50;8.75;;;;;21.49;30.83;101309.50;4914634;29;8964;-72
2021/05/07 07:35:03;;;;;;;;;12.75;12.75;;;;;21.89;35.75;101311.38;4914660;29;8857;-72
2021/05/07 07:37:58;;;;;;;;;8.25;8.25;;;;;21.98;29.35;101316.66;4916110;29;8850;-71
2021/05/07 07:40:54;;;;;;;;;6.00;6.00;;;;;21.95;28.40;101325.91;4916048;29;8860;-72
2021/05/07 07:43:49;;;;;;;;;10.50;9.25;;;;;22.05;27.36;101325.94;4915441;29;8853;-72
2021/05/07 07:46:45;;;;;;;;;4.25;4.25;;;;;21.96;23.06;101328.31;4916096;29;8869;-72
2021/05/07 07:49:41;;;;;;;;;6.00;6.00;;;;;22.15;24.02;101327.22;4915934;29;8881;-72
2021/05/07 07:52:38;;;;;;;;;5.25;5.25;;;;;22.56;27.15;101324.19;4915999;29;9035;-72
2021/05/07 07:55:35;;;;;;;;;8.00;8.00;;;;;22.56;25.44;101322.19;4916151;29;9729;-72
2021/05/07 07:58:30;;;;;;;;;6.50;6.50;;;;;22.47;25.35;101313.31;4916030;29;8861;-73
2021/05/07 08:01:26;;;;;;;;;4.33;4.33;;;;;22.76;25.55;101303.69;4915846;29;8865;-72
2021/05/07 08:04:21;;;;;;;;;5.75;5.25;;;;;22.74;27.52;101313.75;4915830;29;8872;-73
2021/05/07 08:07:17;;;;;;;;;6.75;6.75;;;;;22.86;25.53;101315.44;4916008;29;8884;-73
2021/05/07 08:10:18;;;;;;;;;6.00;6.00;;;;;22.65;26.53;101307.69;4915895;29;8912;-73
2021/05/07 08:13:14;;;;;;;;;6.00;6.00;;;;;22.88;25.67;101324.31;4904972;29;8849;-70
2021/05/07 08:16:10;;;;;;;;;5.00;5.00;;;;;22.74;27.26;101333.50;4916329;29;8857;-72
2021/05/07 08:19:05;;;;;;;;;5.40;5.40;;;;;23.05;27.46;101329.16;4916327;29;8873;-72
2021/05/07 08:22:02;;;;;;;;;5.40;4.40;;;;;22.76;26.86;101320.59;4916737;29;8980;-72
2021/05/07 08:24:58;;;;;;;;;3.60;3.60;;;;;23.02;26.55;101327.16;4916209;29;8845;-72
2021/05/07 08:27:54;;;;;;;;;10.00;9.40;;;;;23.13;33.03;101338.44;4919498;29;8964;-71
2021/05/07 08:30:51;;;;;;;;;8.50;8.50;;;;;22.86;28.74;101338.81;4915979;29;8848;-71
2021/05/07 08:33:46;;;;;;;;;7.75;7.75;;;;;22.95;29.55;101338.41;4915205;29;8886;-72
2021/05/07 08:36:42;;;;;;;;;5.60;5.60;;;;;22.73;29.50;101337.53;4912253;29;8869;-71
2021/05/07 08:39:39;;;;;;;;;4.80;4.80;;;;;22.96;30.36;101340.03;4926642;29;8964;-70
2021/05/07 08:42:34;;;;;;;;;6.40;6.40;;;;;22.79;29.58;101338.75;4954487;28;8859;-71
2021/05/07 08:45:30;;;;;;;;;6.75;6.00;;;;;22.96;29.84;101337.22;4929789;29;8861;-71
2021/05/07 08:48:25;;;;;;;;;7.00;7.00;;;;;23.53;30.35;101334.41;4919281;29;8867;-72
2021/05/07 08:51:21;;;;;;;;;6.40;5.40;;;;;23.65;28.68;101336.84;4921978;29;9623;-71
2021/05/07 08:54:17;;;;;;;;;6.60;6.60;;;;;23.37;31.22;101332.00;4914978;29;8849;-72
2021/05/07 08:57:13;;;;;;;;;5.00;5.00;;;;;23.56;29.28;101339.25;4918926;29;8892;-71
2021/05/07 09:00:10;;;;;;;;;4.20;4.20;;;;;23.88;29.72;101325.13;4918678;29;8875;-72
2021/05/07 09:03:08;;;;;;;;;4.00;4.00;;;;;23.27;27.27;101336.44;4930920;29;8850;-72
2021/05/07 09:06:14;;;;;;;;;7.40;7.40;;;;;23.20;28.14;101335.63;4937805;29;8866;-72
2021/05/07 09:09:36;;;;;;;;;4.60;4.60;;;;;23.38;32.33;101338.44;4936089;29;8973;-72
2021/05/07 09:12:38;;;;;;;;;4.80;4.80;;;;;23.33;28.46;101336.03;4918058;29;8851;-72
2021/05/07 09:15:45;;;;;;;;;8.00;6.80;;;;;23.56;29.28;101328.78;4912923;29;8841;-72
2021/05/07 09:18:46;;;;;;;;;4.00;4.00;;;;;23.67;28.42;101323.13;4935796;29;8989;-72
2021/05/07 09:21:41;;;;;;;;;5.00;5.00;;;;;23.44;29.07;101332.00;4931040;29;8845;-72
2021/05/07 09:24:40;;;;;;;;;5.60;5.60;;;;;23.91;27.75;101337.63;4919468;29;8877;-72
2021/05/07 09:27:36;;;;;;;;;4.40;4.40;;;;;23.96;30.15;101329.53;4909262;29;8943;-72
2021/05/07 09:30:31;;;;;;;;;6.00;6.00;;;;;23.92;29.96;101330.75;4921176;29;8859;-72
2021/05/07 09:33:28;;;;;;;;;3.40;3.40;;;;;24.05;26.43;101323.44;4897180;29;8891;-71
2021/05/07 09:36:26;;;;;;;;;4.00;4.00;;;;;24.25;27.76;101320.97;4909918;29;8858;-71
2021/05/07 09:39:22;;;;;;;;;3.00;3.00;;;;;24.49;27.18;101322.91;4912452;29;8891;-72
2021/05/07 09:42:22;;;;;;;;;4.00;4.00;;;;;24.38;28.32;101324.97;4909560;29;8885;-71
2021/05/07 09:45:26;;;;;;;;;1.80;1.80;;;;;24.41;26.06;101321.34;4913656;29;8943;-71
2021/05/07 09:48:27;;;;;;;;;2.20;2.20;;;;;24.50;26.07;101333.00;4911484;29;8897;-72
2021/05/07 09:51:22;;;;;;;;;4.20;4.20;;;;;24.85;26.87;101332.00;4896763;29;8934;-73
2021/05/07 09:54:18;;;;;;;;;4.40;4.00;;;;;24.91;26.46;101326.69;4896049;29;8882;-71
2021/05/07 09:57:15;;;;;;;;;3.80;3.80;;;;;24.87;26.59;101335.22;4895791;29;8880;-72
2021/05/07 10:00:11;;;;;;;;;4.00;4.00;;;;;25.06;25.64;101327.44;4895185;29;8867;-73
2021/05/07 10:03:07;;;;;;;;;3.40;3.40;;;;;25.38;24.98;101333.69;4895067;29;8911;-71
2021/05/07 10:06:03;;;;;;;;;2.80;2.80;;;;;24.68;28.81;101335.72;4908015;29;8877;-71
2021/05/07 10:09:00;;;;;;;;;4.20;4.20;;;;;25.32;25.30;101340.19;4916616;29;8881;-71
2021/05/07 10:11:59;;;;;;;;;4.20;4.20;;;;;25.36;25.76;101329.63;4917056;29;8870;-72
2021/05/07 10:14:55;;;;;;;;;5.60;5.60;;;;;25.00;27.51;101343.22;4899950;29;8898;-71
2021/05/07 10:17:50;;;;;;;;;1.80;1.80;;;;;25.13;24.81;101345.19;4911791;29;8869;-73
2021/05/07 10:21:06;;;;;;;;;4.40;4.40;;;;;25.10;25.91;101343.19;4902266;29;8860;-72
2021/05/07 10:24:03;;;;;;;;;3.00;2.80;;;;;24.78;27.39;101342.56;4922679;29;8922;-73
2021/05/07 10:26:59;;;;;;;;;4.60;4.60;;;;;24.96;27.50;101338.41;4919522;29;8902;-71
2021/05/07 10:29:57;;;;;;;;;3.00;3.00;;;;;24.60;28.91;101334.16;4916358;29;8953;-71
2021/05/07 10:33:19;;;;;;;;;4.40;4.40;;;;;25.14;29.34;101335.47;4915447;29;8899;-71
2021/05/07 10:36:14;;;;;;;;;14.60;11.40;;;;;25.41;28.59;101335.66;4909304;29;8857;-71
2021/05/07 10:39:19;;;;;;;;;6.40;6.40;;;;;24.58;30.12;101342.25;4917149;29;8883;-73
2021/05/07 10:42:15;;;;;;;;;7.40;7.40;;;;;24.79;29.78;101339.31;4915087;29;8948;-72
2021/05/07 10:45:11;;;;;;;;;6.80;6.80;;;;;24.87;29.97;101340.09;4916074;29;8853;-73
2021/05/07 10:48:25;;;;;;;;;7.40;6.20;;;;;23.87;29.55;101339.66;4918142;29;8865;-72
2021/05/07 10:51:23;;;;;;;;;6.00;6.00;;;;;23.24;32.25;101342.09;4916654;29;8861;-72
2021/05/07 10:54:18;;;;;;;;;6.60;6.60;;;;;23.38;31.63;101335.63;4916613;29;8888;-70
2021/05/07 10:57:25;;;;;;;;;9.20;9.20;;;;;23.89;30.20;101332.38;4916360;29;8952;-72
2021/05/07 11:00:31;;;;;;;;;6.40;6.40;;;;;24.27;30.40;101332.66;4916599;29;8842;-70
2021/05/07 11:03:27;;;;;;;;;6.20;6.20;;;;;23.49;31.09;101347.72;4916311;29;8980;-70
2021/05/07 11:06:58;;;;;;;;;8.80;8.80;;;;;23.92;30.52;101333.56;4913127;29;8873;-72
2021/05/07 11:10:05;;;;;;;;;8.80;8.80;;;;;24.45;29.98;101341.09;4909755;29;8882;-72
2021/05/07 11:13:01;;;;;;;;;14.00;14.00;;;;;24.63;30.32;101341.84;4890140;29;9689;-71
2021/05/07 11:15:59;;;;;;;;;5.60;4.80;;;;;24.82;29.92;101335.66;4903329;29;8867;-72
2021/05/07 11:18:55;;;;;;;;;19.25;18.50;;;;;24.60;30.79;101332.13;4908686;29;8845;-72
2021/05/07 11:21:59;;;;;;;;;7.60;7.60;;;;;24.54;30.16;101333.00;4910525;29;8927;-70
2021/05/07 11:24:54;;;;;;;;;7.40;7.40;;;;;24.41;30.44;101324.16;4914290;29;8869;-71
2021/05/07 11:27:50;;;;;;;;;9.60;9.60;;;;;23.95;30.33;101315.81;4896707;29;8868;-72
2021/05/07 11:30:45;;;;;;;;;8.80;8.80;;;;;24.17;30.62;101314.53;4901333;29;8888;-72
2021/05/07 11:33:44;;;;;;;;;9.60;9.60;;;;;24.50;29.48;101318.88;4922458;29;8901;-72
2021/05/07 11:36:39;;;;;;;;;3.80;3.80;;;;;23.70;29.57;101313.06;4912835;29;8909;-74
2021/05/07 11:39:35;;;;;;;;;8.20;8.20;;;;;23.68;31.25;101312.63;4933880;29;8873;-73
2021/05/07 11:42:35;;;;;;;;;4.00;4.00;;;;;23.77;30.45;101307.38;4899400;29;8881;-72
2021/05/07 11:45:30;;;;;;;;;6.20;5.20;;;;;24.02;30.32;101313.78;4893756;29;8880;-72
2021/05/07 11:48:26;;;;;;;;;7.60;7.60;;;;;24.29;31.03;101311.25;4909419;29;8889;-73
2021/05/07 11:51:22;;;;;;;;;3.60;3.60;;;;;23.18;31.57;101321.13;4916535;29;8877;-72
2021/05/07 11:54:18;;;;;;;;;8.20;7.80;;;;;23.99;30.40;101319.44;4911459;29;8867;-73
2021/05/07 11:57:21;;;;;;;;;4.20;4.20;;;;;24.31;28.96;101317.31;4917047;29;8984;-70
2021/05/07 12:00:20;;;;;;;;;3.80;3.80;;;;;24.20;29.36;101305.25;4919202;29;8898;-71
2021/05/07 12:03:15;;;;;;;;;4.80;4.80;;;;;24.21;29.32;101297.56;4919074;29;9001;-70
2021/05/07 12:06:25;;;;;;;;;4.40;4.40;;;;;24.51;29.09;101295.03;4894760;29;8986;-70
2021/05/07 12:09:20;;;;;;;;;3.80;3.80;;;;;24.76;27.94;101294.06;4900893;29;8903;-71
2021/05/07 12:12:16;;;;;;;;;4.00;4.00;;;;;24.41;29.55;101293.06;4900594;29;8883;-71
2021/05/07 12:15:13;;;;;;;;;7.40;6.60;;;;;24.27;31.17;101299.56;4920106;29;8987;-72
2021/05/07 12:18:20;;;;;;;;;3.80;3.80;;;;;24.31;29.39;101286.22;4901804;29;9602;-73
2021/05/07 12:21:16;;;;;;;;;3.80;3.80;;;;;24.23;29.75;101284.66;4901525;29;8926;-73
2021/05/07 12:24:13;;;;;;;;;4.20;4.20;;;;;24.35;28.16;101286.22;4907605;29;8868;-72
2021/05/07 12:27:09;;;;;;;;;4.00;4.00;;;;;24.33;27.51;101291.50;4905586;29;8860;-71
2021/05/07 12:30:17;;;;;;;;;3.00;3.00;;;;;24.31;29.08;101289.06;4925473;29;8889;-72
2021/05/07 12:33:24;;;;;;;;;6.00;5.00;;;;;24.21;27.99;101281.41;4930622;29;8914;-71
2021/05/07 12:36:19;;;;;;;;;2.40;2.40;;;;;24.32;27.51;101279.38;4926803;29;8842;-69
2021/05/07 12:39:15;;;;;;;;;4.40;4.40;;;;;24.66;26.77;101273.94;4914543;29;8952;-71
2021/05/07 12:42:10;;;;;;;;;4.00;4.00;;;;;24.68;26.48;101274.31;4911349;29;8870;-71
2021/05/07 12:45:06;;;;;;;;;6.00;6.00;;;;;24.58;29.15;101265.91;4917542;29;9579;-71
2021/05/07 12:48:03;;;;;;;;;6.40;6.40;;;;;25.25;26.56;101275.94;4916035;29;8888;-70
2021/05/07 12:51:04;;;;;;;;;4.60;4.60;;;;;25.78;26.87;101275.44;4918839;29;8894;-74
2021/05/07 12:54:00;;;;;;;;;8.20;7.40;;;;;25.94;25.13;101268.41;4918700;29;8861;-72
2021/05/07 12:56:55;;;;;;;;;2.60;2.60;;;;;26.07;25.58;101260.97;4901393;29;8935;-71
2021/05/07 12:59:51;;;;;;;;;2.80;2.80;;;;;26.04;25.71;101265.44;4902569;29;8851;-71
2021/05/07 13:02:47;;;;;;;;;3.80;3.80;;;;;24.62;27.35;101256.19;4899465;29;8871;-73
2021/05/07 13:05:42;;;;;;;;;2.00;2.00;;;;;25.77;26.56;101256.84;4914035;29;8998;-69
2021/05/07 13:08:38;;;;;;;;;1.80;1.80;;;;;26.29;24.30;101256.59;4899815;29;8891;-72
2021/05/07 13:11:33;;;;;;;;;3.00;3.00;;;;;26.65;24.41;101255.31;4912742;29;8888;-70
2021/05/07 13:14:29;;;;;;;;;2.40;2.40;;;;;26.55;25.38;101248.59;4904819;29;8863;-73
2021/05/07 13:17:29;;;;;;;;;1.20;1.20;;;;;26.66;23.79;101243.53;4917844;29;8855;-71
2021/05/07 13:20:27;;;;;;;;;2.00;2.00;;;;;26.98;23.97;101245.06;4919090;29;8851;-71
2021/05/07 13:23:22;;;;;;;;;2.00;2.00;;;;;27.10;24.61;101250.19;4918648;29;9657;-71
2021/05/07 13:26:18;;;;;;;;;3.00;3.00;;;;;27.19;23.95;101239.06;4918640;29;8865;-71
2021/05/07 13:28:48;;;;;;;;;2.00;2.00;;;;;27.79;24.18;101236.34;4915412;29;8877;-71
2021/05/07 13:31:16;;;;;;;;;1.60;1.60;;;;;27.73;23.51;101233.22;4907379;29;9729;-72
2021/05/07 13:34:11;;;;;;;;;2.00;2.00;;;;;27.23;24.05;101230.50;4897704;29;8994;-71
2021/05/07 13:37:07;;;;;;;;;1.60;1.60;;;;;27.70;24.99;101228.41;4917258;29;8935;-72
2021/05/07 13:40:08;;;;;;;;;1.00;1.00;;;;;27.36;24.53;101232.25;4916837;29;8889;-71